Time;durP1;ratioP1;P1;durP2;ratioP2;P2;SDS_P1;SDS_P2;PMS_P1;PMS_P2;Temp;Humidity;BMP_temperature;BMP_pressure;BME280_temperature;BME280_humidity;BME280_pressure;Samples;Min_cycle;Max_cycle;Signal;HPM_P1;HPM_P2
2023/08/10 00:00:59;;;;;;;4.57;2.50;;;;;11.70;101586.00;;;;10261552;28;20204;-75
2023/08/10 00:06:00;;;;;;;4.07;2.63;;;;;11.70;101591.00;;;;10260351;28;20211;-75
2023/08/10 00:11:02;;;;;;;4.60;2.47;;;;;11.70;101592.00;;;;10258613;28;20709;-75
2023/08/10 00:16:03;;;;;;;4.67;2.40;;;;;11.70;101592.00;;;;10263792;28;20563;-76
2023/08/10 00:21:05;;;;;;;3.00;2.37;;;;;11.70;101580.00;;;;10238073;28;20207;-76
2023/08/10 00:26:08;;;;;;;4.80;2.50;;;;;11.60;101582.00;;;;10258748;28;20216;-76
2023/08/10 00:31:09;;;;;;;4.37;2.30;;;;;11.50;101585.00;;;;10258389;28;20227;-76
2023/08/10 00:36:11;;;;;;;4.97;2.10;;;;;11.50;101586.00;;;;10259700;28;21449;-75
2023/08/10 00:41:12;;;;;;;6.30;2.40;;;;;11.50;101591.00;;;;10255918;28;20426;-76
2023/08/10 00:46:14;;;;;;;5.13;2.70;;;;;11.50;101575.00;;;;10257585;28;20214;-75
2023/08/10 00:51:15;;;;;;;4.10;2.10;;;;;11.50;101583.00;;;;10224904;28;20219;-75
2023/08/10 00:56:17;;;;;;;2.80;2.00;;;;;11.40;101578.00;;;;10243667;28;20298;-74
2023/08/10 01:01:18;;;;;;;3.17;2.30;;;;;11.40;101579.00;;;;10241784;28;20211;-76
2023/08/10 01:06:32;;;;;;;3.73;2.37;;;;;11.30;101572.00;;;;10223996;28;21770;-76
2023/08/10 01:11:44;;;;;;;8.73;2.63;;;;;11.20;101576.00;;;;10256633;28;20215;-77
2023/08/10 01:16:48;;;;;;;4.77;2.37;;;;;11.10;101568.00;;;;10236437;28;20207;-77
2023/08/10 01:22:12;;;;;;;3.50;2.60;;;;;11.10;101566.00;;;;10252646;28;20345;-75
2023/08/10 01:27:15;;;;;;;3.80;2.50;;;;;11.10;101569.00;;;;10235860;28;20213;-75
2023/08/10 01:32:16;;;;;;;6.20;2.73;;;;;11.00;101570.00;;;;10219830;28;20219;-75
2023/08/10 01:37:17;;;;;;;2.87;2.67;;;;;11.10;101574.00;;;;10238989;28;20211;-75
2023/08/10 01:42:19;;;;;;;8.97;2.73;;;;;11.10;101572.00;;;;10237040;28;20208;-76
2023/08/10 01:47:32;;;;;;;3.23;2.40;;;;;11.00;101562.00;;;;10236022;28;20215;-76
2023/08/10 01:53:05;;;;;;;5.43;2.83;;;;;11.00;101576.00;;;;10252848;28;20326;-76
2023/08/10 01:58:07;;;;;;;2.50;2.27;;;;;11.00;101581.00;;;;10251930;28;20203;-75
2023/08/10 02:03:08;;;;;;;4.87;2.47;;;;;10.90;101578.00;;;;10254647;28;20789;-73
2023/08/10 02:08:10;;;;;;;6.23;2.20;;;;;10.90;101575.00;;;;10251148;28;20207;-77
2023/08/10 02:13:11;;;;;;;5.93;2.20;;;;;10.90;101571.00;;;;10232674;28;20219;-75
2023/08/10 02:18:13;;;;;;;3.07;2.10;;;;;10.90;101574.00;;;;10236198;28;20270;-77
2023/08/10 02:23:14;;;;;;;4.83;2.60;;;;;10.90;101579.00;;;;10232988;28;20203;-76
2023/08/10 02:28:15;;;;;;;4.40;2.50;;;;;10.90;101579.00;;;;10252469;28;21381;-77
2023/08/10 02:33:17;;;;;;;4.50;2.23;;;;;10.90;101582.00;;;;10216994;28;20377;-75
2023/08/10 02:38:19;;;;;;;6.53;2.67;;;;;10.90;101577.00;;;;10252227;28;20324;-74
2023/08/10 02:43:20;;;;;;;3.13;2.10;;;;;10.80;101568.00;;;;10254948;28;21071;-76
2023/08/10 02:48:22;;;;;;;2.43;2.20;;;;;10.80;101573.00;;;;10215383;28;20196;-76
2023/08/10 02:53:23;;;;;;;2.83;2.17;;;;;10.80;101583.00;;;;10249642;28;20878;-77
2023/08/10 02:58:25;;;;;;;5.43;2.43;;;;;10.70;101571.00;;;;10235994;28;20909;-77
2023/08/10 03:03:26;;;;;;;3.37;2.27;;;;;10.70;101572.00;;;;10233038;28;20725;-76
2023/08/10 03:08:28;;;;;;;4.60;2.60;;;;;10.70;101571.00;;;;10250450;28;20207;-75
2023/08/10 03:13:32;;;;;;;5.20;2.10;;;;;10.60;101576.00;;;;10230496;28;20223;-75
2023/08/10 03:18:33;;;;;;;2.90;1.97;;;;;10.60;101572.00;;;;10251465;28;20561;-74
2023/08/10 03:23:35;;;;;;;6.03;2.23;;;;;10.60;101585.00;;;;10235484;28;21064;-76
2023/08/10 03:28:36;;;;;;;3.50;2.17;;;;;10.60;101586.00;;;;10254362;28;20302;-74
2023/08/10 03:33:40;;;;;;;4.90;2.73;;;;;10.60;101584.00;;;;10240571;28;20235;-74
2023/08/10 03:38:41;;;;;;;7.57;2.30;;;;;10.60;101582.00;;;;10240588;28;20281;-77
2023/08/10 03:43:43;;;;;;;3.37;2.53;;;;;10.50;101580.00;;;;10254402;28;20207;-75
2023/08/10 03:48:44;;;;;;;2.80;2.20;;;;;10.50;101592.00;;;;10258218;28;20227;-76
2023/08/10 03:53:46;;;;;;;3.20;2.83;;;;;10.50;101589.00;;;;10257959;28;20896;-75
2023/08/10 03:58:47;;;;;;;5.53;2.67;;;;;10.50;101592.00;;;;10223578;28;20229;-75
2023/08/10 04:03:49;;;;;;;3.97;2.40;;;;;10.50;101601.00;;;;10238701;28;20329;-77
2023/08/10 04:08:50;;;;;;;3.40;2.67;;;;;10.50;101608.00;;;;10255357;28;21304;-74
2023/08/10 04:13:52;;;;;;;4.67;2.77;;;;;10.40;101618.00;;;;10239584;28;20258;-74
2023/08/10 04:18:53;;;;;;;6.80;2.50;;;;;10.50;101619.00;;;;10238163;28;20942;-76
2023/08/10 04:23:55;;;;;;;4.33;2.70;;;;;10.50;101618.00;;;;10235932;28;21129;-77
2023/08/10 04:28:56;;;;;;;3.30;2.27;;;;;10.40;101618.00;;;;10220056;28;20497;-76
2023/08/10 04:33:58;;;;;;;3.60;2.83;;;;;10.40;101615.00;;;;10235636;28;20227;-76
2023/08/10 04:39:00;;;;;;;6.23;2.80;;;;;10.40;101619.00;;;;10238415;28;20914;-76
2023/08/10 04:44:01;;;;;;;5.23;3.03;;;;;10.50;101619.00;;;;10255411;28;20204;-76
2023/08/10 04:49:03;;;;;;;9.57;4.00;;;;;10.60;101626.00;;;;10254650;28;20231;-76
2023/08/10 04:54:04;;;;;;;4.33;2.63;;;;;10.70;101629.00;;;;10253651;28;20656;-77
2023/08/10 04:59:06;;;;;;;3.83;2.90;;;;;10.80;101634.00;;;;10236696;28;20216;-76
2023/08/10 05:04:09;;;;;;;5.50;3.53;;;;;10.90;101633.00;;;;10256630;28;20207;-74
2023/08/10 05:09:15;;;;;;;6.20;3.30;;;;;11.00;101632.00;;;;10255401;28;20411;-76
2023/08/10 05:14:17;;;;;;;7.53;3.20;;;;;11.20;101630.00;;;;10251813;28;20251;-75
2023/08/10 05:19:18;;;;;;;6.57;3.30;;;;;11.50;101627.00;;;;10255825;28;20215;-75
2023/08/10 05:24:20;;;;;;;4.67;2.93;;;;;11.70;101624.00;;;;10237824;28;20218;-76
2023/08/10 05:29:21;;;;;;;6.10;3.43;;;;;12.00;101626.00;;;;10252291;28;20218;-74
2023/08/10 05:34:23;;;;;;;3.43;3.10;;;;;12.40;101628.00;;;;10254091;28;20223;-75
2023/08/10 05:39:24;;;;;;;4.07;3.23;;;;;12.70;101632.00;;;;10252354;28;20301;-75
2023/08/10 05:44:26;;;;;;;6.10;3.40;;;;;13.10;101626.00;;;;10237914;28;20243;-74
2023/08/10 05:49:27;;;;;;;6.07;3.00;;;;;13.40;101627.00;;;;10236246;28;20261;-75
2023/08/10 05:54:28;;;;;;;4.57;2.93;;;;;13.80;101622.00;;;;10233126;28;21469;-75
2023/08/10 05:59:30;;;;;;;5.93;3.37;;;;;14.30;101626.00;;;;10237193;28;20212;-76
2023/08/10 06:04:31;;;;;;;4.27;3.13;;;;;15.00;101622.00;;;;10250731;28;20222;-76
2023/08/10 06:09:33;;;;;;;9.65;3.58;;;;;15.90;101627.00;;;;10250740;28;21432;-77
2023/08/10 06:14:35;;;;;;;8.52;3.30;;;;;16.60;101631.00;;;;10256380;28;20234;-74
2023/08/10 06:19:36;;;;;;;5.80;2.80;;;;;17.20;101622.00;;;;10233445;28;20661;-76
2023/08/10 06:24:37;;;;;;;3.47;2.45;;;;;17.70;101621.00;;;;10232014;28;20430;-77
2023/08/10 06:29:40;;;;;;;3.45;2.97;;;;;18.20;101626.00;;;;10251183;28;20215;-76
2023/08/10 06:34:41;;;;;;;2.65;2.15;;;;;18.70;101621.00;;;;10217051;28;20226;-75
2023/08/10 06:39:43;;;;;;;2.53;1.52;;;;;19.10;101617.00;;;;10252596;28;20295;-75
2023/08/10 06:44:44;;;;;;;3.75;1.90;;;;;19.40;101608.00;;;;10218324;28;21492;-76
2023/08/10 06:49:46;;;;;;;2.95;1.60;;;;;19.70;101617.00;;;;10251169;28;20215;-74
2023/08/10 06:54:47;;;;;;;2.95;1.70;;;;;20.20;101618.00;;;;10251909;28;21439;-76
2023/08/10 06:59:49;;;;;;;2.25;1.45;;;;;20.50;101625.00;;;;10236767;28;21619;-77
2023/08/10 07:04:53;;;;;;;4.05;1.67;;;;;20.80;101634.00;;;;10256790;28;20222;-75
2023/08/10 07:09:56;;;;;;;3.05;1.27;;;;;21.10;101633.00;;;;10257924;28;20211;-76
2023/08/10 07:14:57;;;;;;;3.60;1.20;;;;;21.50;101626.00;;;;10239838;28;20250;-76
2023/08/10 07:19:58;;;;;;;1.83;1.20;;;;;21.60;101630.00;;;;10255156;28;20350;-76
2023/08/10 07:25:03;;;;;;;6.05;1.30;;;;;21.80;101632.00;;;;10256033;28;20215;-76
2023/08/10 07:30:06;;;;;;;3.85;1.25;;;;;22.00;101628.00;;;;10254877;28;20941;-77
2023/08/10 07:35:08;;;;;;;5.63;1.30;;;;;21.90;101628.00;;;;10256943;28;20293;-76
2023/08/10 07:40:11;;;;;;;1.98;1.02;;;;;22.10;101626.00;;;;10253897;28;20328;-76
2023/08/10 07:45:12;;;;;;;1.88;0.98;;;;;22.40;101619.00;;;;10239121;28;20217;-76
2023/08/10 07:50:14;;;;;;;4.25;1.17;;;;;22.80;101621.00;;;;10257657;28;20281;-75
2023/08/10 07:55:15;;;;;;;2.22;1.08;;;;;23.20;101608.00;;;;10252578;28;20224;-76
2023/08/10 08:00:17;;;;;;;1.15;1.00;;;;;23.50;101604.00;;;;10238896;28;20211;-77
2023/08/10 08:05:19;;;;;;;3.13;1.30;;;;;24.10;101612.00;;;;10257521;28;20555;-77
2023/08/10 08:10:21;;;;;;;2.70;1.00;;;;;24.40;101602.00;;;;10253956;28;20310;-76
2023/08/10 08:15:22;;;;;;;1.15;0.98;;;;;24.60;101589.00;;;;10256771;28;20959;-77
2023/08/10 08:20:24;;;;;;;2.10;1.10;;;;;24.80;101592.00;;;;10255180;28;22007;-76
2023/08/10 08:25:26;;;;;;;2.28;1.25;;;;;25.00;101590.00;;;;10252847;28;20208;-76
2023/08/10 08:30:29;;;;;;;1.88;0.95;;;;;25.20;101583.00;;;;10259123;28;20359;-77
2023/08/10 08:35:30;;;;;;;2.08;1.08;;;;;25.50;101581.00;;;;10254863;28;20876;-76
2023/08/10 08:40:32;;;;;;;2.90;1.08;;;;;25.60;101581.00;;;;10257654;28;20477;-75
2023/08/10 08:45:33;;;;;;;4.82;1.27;;;;;26.10;101574.00;;;;10257159;28;20512;-75
2023/08/10 08:50:39;;;;;;;1.08;0.98;;;;;26.50;101576.00;;;;10255305;28;20222;-76
2023/08/10 08:55:41;;;;;;;2.03;1.30;;;;;26.70;101581.00;;;;10239739;28;20302;-77
2023/08/10 09:00:53;;;;;;;3.45;1.27;;;;;26.80;101576.00;;;;10240802;28;20308;-77
2023/08/10 09:05:54;;;;;;;2.22;1.10;;;;;27.00;101578.00;;;;10241153;28;20681;-77
2023/08/10 09:10:56;;;;;;;1.20;0.82;;;;;27.10;101570.00;;;;10237649;28;20864;-78
2023/08/10 09:16:09;;;;;;;3.53;1.17;;;;;27.10;101568.00;;;;10253692;28;20214;-78
2023/08/10 09:21:20;;;;;;;1.48;1.02;;;;;27.20;101564.00;;;;10254656;28;20293;-78
2023/08/10 09:26:22;;;;;;;2.95;1.30;;;;;27.60;101578.00;;;;10237358;28;20333;-78
2023/08/10 09:31:26;;;;;;;1.48;1.08;;;;;27.80;101568.00;;;;10254178;28;21620;-74
2023/08/10 09:36:29;;;;;;;3.08;1.40;;;;;28.10;101569.00;;;;10253127;28;20516;-77
2023/08/10 09:41:31;;;;;;;3.72;1.48;;;;;28.20;101556.00;;;;10258438;28;20215;-76
2023/08/10 09:46:32;;;;;;;4.32;1.30;;;;;28.30;101551.00;;;;10238475;28;20207;-76
2023/08/10 09:51:38;;;;;;;1.67;1.25;;;;;28.20;101545.00;;;;10251621;28;21584;-76
2023/08/10 09:56:39;;;;;;;2.28;1.10;;;;;28.20;101539.00;;;;10256513;28;20342;-77
2023/08/10 10:01:41;;;;;;;1.10;1.00;;;;;28.20;101539.00;;;;10260751;28;20326;-76
2023/08/10 10:06:44;;;;;;;1.95;1.20;;;;;28.20;101542.00;;;;10234039;28;20301;-75
2023/08/10 10:11:47;;;;;;;2.67;1.20;;;;;28.40;101545.00;;;;10251549;28;21417;-77
2023/08/10 10:16:50;;;;;;;2.70;1.55;;;;;28.50;101545.00;;;;10261324;28;20358;-77
2023/08/10 10:21:52;;;;;;;1.73;1.20;;;;;28.40;101542.00;;;;10257329;28;20301;-76
2023/08/10 10:27:05;;;;;;;1.42;1.13;;;;;28.50;101553.00;;;;10235060;28;20234;-78
2023/08/10 10:32:10;;;;;;;3.20;1.50;;;;;28.90;101553.00;;;;10257070;28;20970;-77
2023/08/10 10:37:32;;;;;;;2.47;1.27;;;;;29.40;101545.00;;;;10235391;28;21142;-77
2023/08/10 10:42:34;;;;;;;2.38;1.35;;;;;29.40;101552.00;;;;10237665;28;21450;-76
2023/08/10 10:47:49;;;;;;;4.43;1.52;;;;;29.80;101548.00;;;;10254948;28;20345;-76
2023/08/10 10:53:09;;;;;;;1.52;1.17;;;;;30.10;101553.00;;;;10230725;28;20227;-77
2023/08/10 10:58:12;;;;;;;3.55;1.40;;;;;30.50;101561.00;;;;10255795;28;20707;-77
2023/08/10 11:03:13;;;;;;;3.17;1.40;;;;;30.80;101562.00;;;;10256539;28;20204;-78
2023/08/10 11:08:15;;;;;;;3.13;1.20;;;;;30.90;101569.00;;;;10237288;28;20207;-77
2023/08/10 11:13:18;;;;;;;2.80;1.55;;;;;31.00;101560.00;;;;10257100;28;20282;-77
2023/08/10 11:18:19;;;;;;;1.55;1.30;;;;;31.00;101557.00;;;;10259347;28;20219;-76
2023/08/10 11:23:20;;;;;;;1.30;1.20;;;;;31.40;101550.00;;;;10256748;28;20218;-77
2023/08/10 11:28:22;;;;;;;1.50;1.40;;;;;31.60;101551.00;;;;10258381;28;20214;-76
2023/08/10 11:33:24;;;;;;;3.50;1.35;;;;;31.60;101547.00;;;;10252248;28;20223;-75
2023/08/10 11:38:25;;;;;;;4.00;1.38;;;;;31.50;101545.00;;;;10252237;28;20204;-77
2023/08/10 11:43:27;;;;;;;1.35;1.20;;;;;31.40;101532.00;;;;10258446;28;20346;-77
2023/08/10 11:48:29;;;;;;;1.92;1.50;;;;;31.40;101533.00;;;;10262656;28;20920;-76
2023/08/10 11:53:39;;;;;;;2.97;1.20;;;;;31.70;101526.00;;;;10259944;28;20741;-76
2023/08/10 11:58:40;;;;;;;2.70;1.50;;;;;31.90;101533.00;;;;10260845;28;20944;-77
2023/08/10 12:03:51;;;;;;;3.97;1.60;;;;;31.90;101522.00;;;;10263408;28;20215;-78
2023/08/10 12:08:53;;;;;;;3.97;1.48;;;;;31.80;101522.00;;;;10261100;28;20294;-76
2023/08/10 12:13:54;;;;;;;2.72;1.40;;;;;31.70;101525.00;;;;10259202;28;20230;-79
2023/08/10 12:18:56;;;;;;;3.97;1.70;;;;;31.50;101520.00;;;;10257632;28;20342;-76
2023/08/10 12:23:58;;;;;;;2.35;1.63;;;;;31.20;101518.00;;;;10259766;28;20285;-77
2023/08/10 12:29:01;;;;;;;2.67;1.42;;;;;31.30;101532.00;;;;10263851;28;20411;-76
2023/08/10 12:34:03;;;;;;;2.42;1.30;;;;;31.60;101526.00;;;;10242310;28;21706;-77
2023/08/10 12:39:05;;;;;;;1.65;1.42;;;;;31.80;101538.00;;;;10257410;28;20203;-77
2023/08/10 12:44:06;;;;;;;2.00;1.40;;;;;31.90;101535.00;;;;10243214;28;20207;-76
2023/08/10 12:49:08;;;;;;;1.95;1.60;;;;;31.80;101533.00;;;;10257823;28;20204;-77
2023/08/10 12:54:09;;;;;;;1.98;1.65;;;;;31.70;101525.00;;;;10254700;28;20432;-77
2023/08/10 12:59:10;;;;;;;3.08;1.80;;;;;31.40;101523.00;;;;10259102;28;20390;-78
2023/08/10 13:04:11;;;;;;;4.03;1.58;;;;;31.40;101519.00;;;;10257625;28;20238;-77
2023/08/10 13:09:13;;;;;;;2.03;1.50;;;;;31.60;101523.00;;;;10256637;28;21371;-77
2023/08/10 13:14:14;;;;;;;2.15;1.65;;;;;31.70;101521.00;;;;10254450;28;20262;-76
2023/08/10 13:19:17;;;;;;;1.63;1.20;;;;;31.70;101526.00;;;;10255846;28;20203;-75
2023/08/10 13:24:18;;;;;;;3.70;1.70;;;;;31.40;101513.00;;;;10253471;28;20900;-77
2023/08/10 13:29:20;;;;;;;3.35;1.20;;;;;31.70;101516.00;;;;10255881;28;20666;-77
2023/08/10 13:34:22;;;;;;;2.58;1.10;;;;;31.80;101508.00;;;;10255026;28;20473;-76
2023/08/10 13:39:26;;;;;;;3.80;1.63;;;;;31.90;101503.00;;;;10231914;28;20210;-76
2023/08/10 13:44:28;;;;;;;2.38;1.30;;;;;31.60;101496.00;;;;10237950;28;20218;-78
2023/08/10 13:49:29;;;;;;;1.90;1.40;;;;;31.20;101493.00;;;;10240478;28;20239;-76
2023/08/10 13:54:41;;;;;;;2.63;1.30;;;;;31.00;101484.00;;;;10239959;28;20223;-76
2023/08/10 13:59:44;;;;;;;4.13;1.52;;;;;30.80;101489.00;;;;10262110;28;20462;-77
2023/08/10 14:04:46;;;;;;;3.83;1.80;;;;;30.30;101483.00;;;;10259430;28;20203;-76
2023/08/10 14:09:48;;;;;;;3.88;1.40;;;;;30.40;101470.00;;;;10257535;28;20211;-77
2023/08/10 14:14:49;;;;;;;2.13;1.50;;;;;30.50;101462.00;;;;10255380;28;20933;-76
2023/08/10 14:19:51;;;;;;;1.73;1.30;;;;;30.40;101452.00;;;;10250914;28;20293;-76
2023/08/10 14:24:52;;;;;;;2.38;1.40;;;;;30.20;101451.00;;;;10248972;28;20605;-76
2023/08/10 14:29:53;;;;;;;3.15;1.75;;;;;30.20;101445.00;;;;10257048;28;20289;-76
2023/08/10 14:34:55;;;;;;;1.75;1.55;;;;;30.00;101455.00;;;;10237765;28;21624;-75
2023/08/10 14:39:58;;;;;;;1.55;1.40;;;;;29.80;101448.00;;;;10253598;28;20215;-75
2023/08/10 14:44:59;;;;;;;3.03;1.55;;;;;29.60;101443.00;;;;10221927;28;20543;-76
2023/08/10 14:50:00;;;;;;;5.78;1.50;;;;;29.60;101445.00;;;;10256190;28;20211;-76
2023/08/10 14:55:03;;;;;;;2.88;1.45;;;;;30.00;101426.00;;;;10257668;28;20273;-76
2023/08/10 15:00:23;;;;;;;2.00;1.60;;;;;31.00;101428.00;;;;10258115;28;20195;-76
2023/08/10 15:05:25;;;;;;;3.67;1.77;;;;;31.90;101436.00;;;;10235821;28;20896;-76
2023/08/10 15:10:27;;;;;;;1.98;1.73;;;;;30.50;101434.00;;;;10251640;28;20460;-77
2023/08/10 15:15:28;;;;;;;1.75;1.55;;;;;30.60;101437.00;;;;10233991;28;20445;-77
2023/08/10 15:20:29;;;;;;;4.45;1.80;;;;;28.90;101439.00;;;;10221802;28;20790;-76
2023/08/10 15:25:31;;;;;;;3.33;1.80;;;;;28.10;101424.00;;;;10254233;28;20211;-77
2023/08/10 15:30:32;;;;;;;2.40;1.73;;;;;30.10;101432.00;;;;10262923;28;20413;-76
2023/08/10 15:35:34;;;;;;;2.25;1.58;;;;;28.10;101443.00;;;;10263398;28;20245;-76
2023/08/10 15:40:35;;;;;;;2.78;1.60;;;;;27.50;101429.00;;;;10256210;28;20253;-77
2023/08/10 15:45:37;;;;;;;4.55;1.80;;;;;27.10;101425.00;;;;10256269;28;20382;-76
2023/08/10 15:50:39;;;;;;;2.53;1.65;;;;;28.30;101424.00;;;;10241040;28;20369;-77
2023/08/10 15:55:40;;;;;;;5.32;1.50;;;;;30.70;101422.00;;;;10242615;28;20636;-77
2023/08/10 16:00:42;;;;;;;2.42;1.52;;;;;27.70;101418.00;;;;10262140;28;20604;-75
2023/08/10 16:05:44;;;;;;;2.40;1.80;;;;;26.60;101418.00;;;;10258369;28;21610;-77
2023/08/10 16:10:45;;;;;;;3.17;1.88;;;;;26.30;101419.00;;;;10242365;28;20276;-75
2023/08/10 16:15:47;;;;;;;2.00;1.50;;;;;26.00;101429.00;;;;10240242;28;20239;-74
2023/08/10 16:20:48;;;;;;;1.77;1.42;;;;;25.80;101422.00;;;;10261719;28;20256;-78
2023/08/10 16:25:52;;;;;;;1.45;1.35;;;;;25.60;101420.00;;;;10239037;28;20913;-76
2023/08/10 16:30:56;;;;;;;4.10;1.42;;;;;25.50;101416.00;;;;10255339;28;20234;-75
2023/08/10 16:35:57;;;;;;;5.40;1.80;;;;;25.40;101424.00;;;;10256295;28;21090;-74
2023/08/10 16:40:58;;;;;;;3.13;2.10;;;;;25.40;101433.00;;;;10257553;28;20211;-76
2023/08/10 16:45:59;;;;;;;4.60;1.60;;;;;25.30;101435.00;;;;10255663;28;20258;-76
2023/08/10 16:51:02;;;;;;;2.13;1.92;;;;;25.10;101442.00;;;;10257153;28;21193;-76
2023/08/10 16:56:03;;;;;;;2.38;1.50;;;;;25.10;101436.00;;;;10255305;28;20444;-77
2023/08/10 17:01:09;;;;;;;1.70;1.60;;;;;25.00;101424.00;;;;10258870;28;20577;-77
2023/08/10 17:06:10;;;;;;;3.13;1.67;;;;;24.90;101439.00;;;;10262117;28;20207;-76
2023/08/10 17:11:12;;;;;;;1.73;1.42;;;;;24.80;101445.00;;;;10244200;28;20328;-76
2023/08/10 17:16:14;;;;;;;2.10;1.52;;;;;24.80;101450.00;;;;10261965;28;20230;-76
2023/08/10 17:21:15;;;;;;;2.05;1.42;;;;;24.70;101441.00;;;;10264481;28;20208;-75
2023/08/10 17:26:17;;;;;;;2.83;1.63;;;;;24.60;101443.00;;;;10261452;28;20207;-76
2023/08/10 17:31:19;;;;;;;2.30;1.67;;;;;24.50;101442.00;;;;10255430;28;20898;-77
2023/08/10 17:36:21;;;;;;;3.92;1.40;;;;;24.30;101451.00;;;;10257572;28;20218;-76
2023/08/10 17:41:22;;;;;;;3.63;1.73;;;;;24.30;101449.00;;;;10238577;28;20230;-76
2023/08/10 17:46:26;;;;;;;2.42;1.65;;;;;24.20;101446.00;;;;10262529;28;20289;-76
2023/08/10 17:51:27;;;;;;;2.03;1.40;;;;;24.10;101449.00;;;;10258716;28;20238;-77
2023/08/10 17:56:29;;;;;;;3.05;1.70;;;;;23.90;101455.00;;;;10258773;28;20413;-76
2023/08/10 18:01:30;;;;;;;4.28;1.77;;;;;23.80;101450.00;;;;10254265;28;20207;-76
2023/08/10 18:06:31;;;;;;;3.65;1.60;;;;;23.70;101452.00;;;;10253864;28;20690;-75
2023/08/10 18:11:33;;;;;;;4.32;1.42;;;;;23.50;101451.00;;;;10255069;28;20223;-77
2023/08/10 18:16:35;;;;;;;2.40;1.70;;;;;23.40;101451.00;;;;10253161;28;20203;-75
2023/08/10 18:21:36;;;;;;;3.40;1.70;;;;;23.20;101457.00;;;;10259170;28;20498;-76
2023/08/10 18:26:43;;;;;;;2.97;1.75;;;;;23.10;101449.00;;;;10228898;28;20759;-76
2023/08/10 18:31:44;;;;;;;7.68;1.85;;;;;22.90;101442.00;;;;10255517;28;20769;-76
2023/08/10 18:36:46;;;;;;;9.68;1.80;;;;;22.70;101450.00;;;;10235810;28;20542;-77
2023/08/10 18:41:47;;;;;;;1.83;1.60;;;;;22.60;101440.00;;;;10253134;28;20711;-76
2023/08/10 18:46:49;;;;;;;4.63;1.67;;;;;22.40;101455.00;;;;10235884;28;20294;-76
2023/08/10 18:51:51;;;;;;;3.60;1.50;;;;;22.20;101440.00;;;;10253558;28;20246;-76
2023/08/10 18:56:52;;;;;;;3.45;1.85;;;;;22.00;101444.00;;;;10262759;28;20211;-76
2023/08/10 19:01:54;;;;;;;3.40;1.80;;;;;21.80;101449.00;;;;10242161;28;20338;-76
2023/08/10 19:06:55;;;;;;;4.40;1.95;;;;;21.60;101438.00;;;;10268027;28;20350;-76
2023/08/10 19:11:56;;;;;;;2.70;1.63;;;;;21.50;101444.00;;;;10248287;28;20224;-76
2023/08/10 19:16:58;;;;;;;6.43;2.10;;;;;21.30;101440.00;;;;10258422;28;20211;-77
2023/08/10 19:22:01;;;;;;;5.35;1.98;;;;;21.10;101442.00;;;;10259408;28;20712;-75
2023/08/10 19:27:02;;;;;;;4.35;2.08;;;;;21.00;101453.00;;;;10255039;28;20207;-76
2023/08/10 19:32:04;;;;;;;1.88;1.70;;;;;21.00;101458.00;;;;10256107;28;20225;-77
2023/08/10 19:37:07;;;;;;;6.50;1.83;;;;;20.90;101456.00;;;;10256429;28;20207;-75
2023/08/10 19:42:08;;;;;;;7.68;2.22;;;;;20.80;101461.00;;;;10240881;28;21006;-77
2023/08/10 19:47:10;;;;;;;3.28;1.90;;;;;20.60;101472.00;;;;10239941;28;21668;-78
2023/08/10 19:52:11;;;;;;;3.83;1.77;;;;;20.40;101477.00;;;;10242202;28;20333;-77
2023/08/10 19:57:13;;;;;;;3.50;1.98;;;;;20.30;101470.00;;;;10258249;28;20203;-75
2023/08/10 20:02:14;;;;;;;3.80;2.20;;;;;20.20;101474.00;;;;10237569;28;20299;-77
2023/08/10 20:07:16;;;;;;;4.88;2.10;;;;;20.00;101480.00;;;;10240498;28;20700;-76
2023/08/10 20:12:17;;;;;;;8.80;2.28;;;;;19.90;101479.00;;;;10239403;28;20219;-75
2023/08/10 20:17:18;;;;;;;8.95;2.58;;;;;19.80;101476.00;;;;10222251;28;20208;-77
2023/08/10 20:22:21;;;;;;;7.53;2.50;;;;;19.70;101485.00;;;;10238489;28;20211;-75
2023/08/10 20:27:22;;;;;;;5.22;2.38;;;;;19.80;101479.00;;;;10222298;28;20199;-76
2023/08/10 20:32:23;;;;;;;4.10;2.15;;;;;19.70;101482.00;;;;10238614;28;20215;-76
2023/08/10 20:37:25;;;;;;;4.53;2.25;;;;;19.70;101484.00;;;;10261324;28;20203;-76
2023/08/10 20:42:27;;;;;;;3.78;2.97;;;;;19.60;101483.00;;;;10257994;28;20238;-76
2023/08/10 20:47:28;;;;;;;5.70;2.97;;;;;19.60;101480.00;;;;10254497;28;20219;-76
2023/08/10 20:52:30;;;;;;;4.53;3.03;;;;;19.60;101483.00;;;;10256816;28;20227;-77
2023/08/10 20:57:31;;;;;;;4.60;3.00;;;;;19.50;101486.00;;;;10253279;28;20250;-77
2023/08/10 21:02:32;;;;;;;6.07;4.00;;;;;19.40;101483.00;;;;10254005;28;21129;-75
2023/08/10 21:07:35;;;;;;;5.40;3.58;;;;;19.20;101490.00;;;;10259143;28;20223;-76
2023/08/10 21:12:37;;;;;;;3.80;3.00;;;;;19.10;101495.00;;;;10238328;28;20338;-76
2023/08/10 21:17:39;;;;;;;4.13;3.15;;;;;19.00;101499.00;;;;10248345;28;20497;-76
2023/08/10 21:22:41;;;;;;;4.15;3.10;;;;;18.90;101498.00;;;;10251727;28;20290;-74
2023/08/10 21:27:42;;;;;;;7.63;3.13;;;;;18.80;101506.00;;;;10248209;28;20289;-77
2023/08/10 21:32:44;;;;;;;5.07;3.20;;;;;18.50;101497.00;;;;10252284;28;20208;-76
2023/08/10 21:37:45;;;;;;;4.38;2.65;;;;;18.40;101510.00;;;;10254980;28;20585;-75
2023/08/10 21:42:47;;;;;;;4.43;3.05;;;;;18.20;101509.00;;;;10258311;28;20290;-76
2023/08/10 21:47:49;;;;;;;4.13;3.10;;;;;18.10;101502.00;;;;10234173;28;20238;-76
2023/08/10 21:52:50;;;;;;;8.70;3.55;;;;;17.90;101502.00;;;;10253110;28;21445;-76
2023/08/10 21:57:52;;;;;;;5.47;3.20;;;;;17.90;101501.00;;;;10250586;28;20215;-76
2023/08/10 22:02:53;;;;;;;5.53;3.63;;;;;17.80;101494.00;;;;10251777;28;21473;-75
2023/08/10 22:07:55;;;;;;;5.38;3.53;;;;;17.80;101495.00;;;;10252846;28;21354;-77
2023/08/10 22:12:56;;;;;;;6.65;3.72;;;;;17.70;101499.00;;;;10235294;28;20226;-76
2023/08/10 22:17:57;;;;;;;6.53;3.65;;;;;17.70;101494.00;;;;10251626;28;20544;-75
2023/08/10 22:22:59;;;;;;;5.68;3.42;;;;;17.60;101502.00;;;;10237095;28;20207;-76
2023/08/10 22:28:06;;;;;;;5.78;3.15;;;;;17.60;101500.00;;;;10250933;28;20849;-76
2023/08/10 22:33:07;;;;;;;5.30;2.95;;;;;17.60;101507.00;;;;10235041;28;20219;-76
2023/08/10 22:38:08;;;;;;;4.65;3.63;;;;;17.50;101494.00;;;;10255303;28;20709;-76
2023/08/10 22:43:10;;;;;;;5.72;3.20;;;;;17.50;101497.00;;;;10217029;28;20269;-75
2023/08/10 22:48:11;;;;;;;4.60;3.53;;;;;17.50;101499.00;;;;10253328;28;20221;-76
2023/08/10 22:53:13;;;;;;;3.47;3.17;;;;;17.40;101497.00;;;;10251611;28;20927;-77
2023/08/10 22:58:14;;;;;;;7.60;3.58;;;;;17.40;101494.00;;;;10235308;28;20268;-75
2023/08/10 23:03:15;;;;;;;4.80;3.72;;;;;17.40;101495.00;;;;10256440;28;20513;-76
2023/08/10 23:08:17;;;;;;;7.97;3.92;;;;;17.40;101486.00;;;;10253209;28;20599;-76
2023/08/10 23:13:18;;;;;;;7.50;4.28;;;;;17.40;101472.00;;;;10249824;28;20589;-76
2023/08/10 23:18:19;;;;;;;5.15;3.63;;;;;17.40;101488.00;;;;10234089;28;20215;-77
2023/08/10 23:23:21;;;;;;;5.63;3.78;;;;;17.30;101484.00;;;;10218359;28;20204;-75
2023/08/10 23:28:22;;;;;;;4.60;3.47;;;;;17.30;101478.00;;;;10250411;28;20302;-75
2023/08/10 23:33:23;;;;;;;5.68;3.42;;;;;17.20;101484.00;;;;10216314;28;20749;-76
2023/08/10 23:38:25;;;;;;;8.25;4.25;;;;;17.10;101481.00;;;;10255825;28;20333;-76
2023/08/10 23:43:26;;;;;;;5.32;3.70;;;;;17.00;101480.00;;;;10261576;28;20218;-76
2023/08/10 23:48:28;;;;;;;4.85;4.18;;;;;16.90;101476.00;;;;10243712;28;20443;-75
2023/08/10 23:53:30;;;;;;;5.82;4.38;;;;;16.80;101464.00;;;;10256848;28;20251;-74
2023/08/10 23:58:32;;;;;;;7.72;3.67;;;;;16.70;101465.00;;;;10227181;28;21288;-76
